createdAt,value
2018-10-12T00:00:37.715Z,33.30
2018-10-12T00:03:07.625Z,31.77
2018-10-12T00:05:37.555Z,32.93
2018-10-12T00:08:07.553Z,32.40
2018-10-12T00:10:37.411Z,33.73
2018-10-12T00:13:07.373Z,34.43
2018-10-12T00:15:37.359Z,32.90
2018-10-12T00:18:07.257Z,33.50
2018-10-12T00:20:37.127Z,35.30
2018-10-12T00:23:07.082Z,36.03
2018-10-12T00:25:36.920Z,37.37
2018-10-12T00:28:06.862Z,39.10
2018-10-12T00:30:36.908Z,37.57
2018-10-12T00:33:06.821Z,44.57
2018-10-12T00:35:36.643Z,43.97
2018-10-12T00:38:06.488Z,38.73
2018-10-12T00:40:36.313Z,35.97
2018-10-12T00:43:06.141Z,37.70
2018-10-12T00:45:35.999Z,34.23
2018-10-12T00:48:05.815Z,35.23
2018-10-12T00:50:35.623Z,33.27
2018-10-12T00:53:05.543Z,35.47
2018-10-12T00:55:35.546Z,37.33
2018-10-12T00:58:05.418Z,36.30
2018-10-12T01:00:35.342Z,34.70
2018-10-12T01:03:05.134Z,35.67
2018-10-12T01:05:34.972Z,34.67
2018-10-12T01:08:04.951Z,35.60
2018-10-12T01:10:34.805Z,35.10
2018-10-12T01:13:04.719Z,34.33
2018-10-12T01:15:34.575Z,34.90
2018-10-12T01:18:04.517Z,36.60
2018-10-12T01:20:34.468Z,35.13
2018-10-12T01:23:04.451Z,34.67
2018-10-12T01:25:34.293Z,33.43
2018-10-12T01:28:04.179Z,35.83
2018-10-12T01:30:34.123Z,34.40
2018-10-12T01:33:05.201Z,34.73
2018-10-12T01:35:35.463Z,35.00
2018-10-12T01:38:05.312Z,35.37
2018-10-12T01:40:35.123Z,36.03
2018-10-12T01:43:04.960Z,35.63
2018-10-12T01:45:34.792Z,38.10
2018-10-12T01:48:04.674Z,36.13
2018-10-12T01:50:34.578Z,36.03
2018-10-12T01:53:04.410Z,36.73
2018-10-12T01:55:34.273Z,36.53
2018-10-12T01:58:04.212Z,37.33
2018-10-12T02:00:34.131Z,37.80
2018-10-12T02:03:04.093Z,35.90
2018-10-12T02:05:34.018Z,37.83
2018-10-12T02:08:03.932Z,33.40
2018-10-12T02:10:33.859Z,32.80
2018-10-12T02:13:03.652Z,33.30
2018-10-12T02:15:33.664Z,36.23
2018-10-12T02:18:03.568Z,35.70
2018-10-12T02:20:33.479Z,35.27
2018-10-12T02:23:03.287Z,33.23
2018-10-12T02:25:33.140Z,33.60
2018-10-12T02:28:03.087Z,33.17
2018-10-12T02:30:32.919Z,34.23
2018-10-12T02:33:02.852Z,34.43
2018-10-12T02:35:32.823Z,34.87
2018-10-12T02:38:02.659Z,34.53
2018-10-12T02:40:32.603Z,36.03
2018-10-12T02:43:02.449Z,31.80
2018-10-12T02:45:32.245Z,33.70
2018-10-12T02:48:02.132Z,32.87
2018-10-12T02:50:32.003Z,36.90
2018-10-12T02:53:01.793Z,34.40
2018-10-12T02:55:31.702Z,36.97
2018-10-12T02:58:01.627Z,36.57
2018-10-12T03:00:31.475Z,33.57
2018-10-12T03:03:01.393Z,33.00
2018-10-12T03:05:31.239Z,36.20
2018-10-12T03:08:01.172Z,39.40
2018-10-12T03:10:30.979Z,47.33
2018-10-12T03:13:00.785Z,41.27
2018-10-12T03:15:30.673Z,40.73
2018-10-12T03:18:00.575Z,40.30
2018-10-12T03:20:31.653Z,37.43
2018-10-12T03:23:01.441Z,37.70
2018-10-12T03:25:31.332Z,36.73
2018-10-12T03:28:17.053Z,36.90
2018-10-12T03:30:46.883Z,38.43
2018-10-12T03:33:16.799Z,36.53
2018-10-12T03:35:47.186Z,38.17
2018-10-12T03:38:17.137Z,35.67
2018-10-12T03:40:47.059Z,33.53
2018-10-12T03:43:16.918Z,35.67
2018-10-12T03:45:46.799Z,35.23
2018-10-12T03:48:16.711Z,35.73
2018-10-12T03:50:46.616Z,33.47
2018-10-12T03:53:16.811Z,33.90
2018-10-12T03:55:46.613Z,35.60
2018-10-12T03:58:16.574Z,33.97
2018-10-12T04:00:46.419Z,33.13
2018-10-12T04:03:16.267Z,33.23
2018-10-12T04:05:46.195Z,33.80
2018-10-12T04:08:15.973Z,36.63
2018-10-12T04:10:45.843Z,36.23
2018-10-12T04:13:15.688Z,35.07
2018-10-12T04:15:45.550Z,38.57
2018-10-12T04:18:15.498Z,37.80
2018-10-12T04:20:45.324Z,40.43
2018-10-12T04:23:15.225Z,38.40
2018-10-12T04:25:45.085Z,37.30
2018-10-12T04:28:15.069Z,35.93
2018-10-12T04:30:44.966Z,33.80
2018-10-12T04:33:14.830Z,36.40
2018-10-12T04:35:44.715Z,37.97
2018-10-12T04:38:14.599Z,36.17
2018-10-12T04:41:04.494Z,36.13
2018-10-12T04:43:34.573Z,37.03
2018-10-12T04:46:06.092Z,36.67
2018-10-12T04:48:36.543Z,37.37
2018-10-12T04:51:08.670Z,36.23
2018-10-12T04:53:38.863Z,37.10
2018-10-12T04:56:12.302Z,34.57
2018-10-12T04:58:42.958Z,37.60
2018-10-12T05:01:13.092Z,37.57
2018-10-12T05:03:44.079Z,37.63
2018-10-12T05:06:14.886Z,37.03
2018-10-12T05:08:44.593Z,36.47
2018-10-12T05:11:14.354Z,36.70
2018-10-12T05:13:44.983Z,35.23
2018-10-12T05:16:15.689Z,36.30
2018-10-12T05:18:47.958Z,36.37
2018-10-12T05:21:18.199Z,38.87
2018-10-12T05:23:48.873Z,36.77
2018-10-12T05:26:19.451Z,36.10
2018-10-12T05:28:49.281Z,35.40
2018-10-12T05:31:19.025Z,34.93
2018-10-12T05:33:49.201Z,35.83
2018-10-12T05:36:19.902Z,35.53
2018-10-12T05:38:50.522Z,35.30
2018-10-12T05:41:20.293Z,78.77
2018-10-12T05:43:51.416Z,39.63
2018-10-12T05:46:21.527Z,38.57
2018-10-12T05:49:02.318Z,37.37
2018-10-12T05:51:32.553Z,38.40
2018-10-12T05:54:03.651Z,39.00
2018-10-12T05:56:35.235Z,41.10
2018-10-12T05:59:05.516Z,38.50
2018-10-12T06:01:36.769Z,35.73
2018-10-12T06:04:06.969Z,36.93
2018-10-12T06:06:37.391Z,36.77
2018-10-12T06:09:08.723Z,37.70
2018-10-12T06:11:39.244Z,41.03
2018-10-12T06:14:09.361Z,38.77
2018-10-12T06:16:39.090Z,39.20
2018-10-12T06:19:08.862Z,41.87
2018-10-12T06:21:39.581Z,46.73
2018-10-12T06:24:09.654Z,42.37
2018-10-12T06:26:40.099Z,47.53
2018-10-12T06:29:09.772Z,50.30
2018-10-12T06:31:40.722Z,49.93
2018-10-12T06:34:10.641Z,49.97
2018-10-12T06:36:40.872Z,54.40
2018-10-12T06:39:10.967Z,48.03
2018-10-12T06:41:41.532Z,49.17
2018-10-12T06:44:12.514Z,51.47
2018-10-12T06:46:42.350Z,55.83
2018-10-12T06:49:13.502Z,52.73
2018-10-12T06:51:45.382Z,48.03
2018-10-12T06:54:15.998Z,47.07
2018-10-12T06:56:47.777Z,46.03
2018-10-12T06:59:17.741Z,46.37
2018-10-12T07:01:47.486Z,53.07
2018-10-12T07:04:18.617Z,47.10
2018-10-12T07:06:49.199Z,46.03
2018-10-12T07:09:19.529Z,45.43
2018-10-12T07:11:49.813Z,44.87
2018-10-12T07:14:19.847Z,76.30
2018-10-12T07:16:50.718Z,57.20
2018-10-12T07:19:21.231Z,47.53
2018-10-12T07:21:51.582Z,44.83
2018-10-12T07:24:22.987Z,44.10
2018-10-12T07:26:53.787Z,46.93
2018-10-12T07:29:25.108Z,42.47
2018-10-12T07:31:55.465Z,44.13
2018-10-12T07:34:25.130Z,48.43
2018-10-12T07:36:55.353Z,42.30
2018-10-12T07:39:26.528Z,43.63
2018-10-12T07:41:56.625Z,45.37
2018-10-12T07:44:27.275Z,43.80
2018-10-12T07:46:57.875Z,40.50
2018-10-12T07:49:28.722Z,42.03
2018-10-12T07:51:59.072Z,40.57
2018-10-12T07:54:29.554Z,40.53
2018-10-12T07:57:05.317Z,42.33
2018-10-12T07:59:35.210Z,39.53
2018-10-12T08:02:05.826Z,42.23
2018-10-12T08:04:35.602Z,38.37
2018-10-12T08:07:05.786Z,38.07
2018-10-12T08:09:35.971Z,40.90
2018-10-12T08:12:06.387Z,38.00
2018-10-12T08:14:36.682Z,41.20
2018-10-12T08:17:07.207Z,38.47
2018-10-12T08:19:38.130Z,38.97
2018-10-12T08:22:09.167Z,38.97
2018-10-12T08:24:38.887Z,41.43
2018-10-12T08:27:08.770Z,40.97
2018-10-12T08:29:39.234Z,35.37
2018-10-12T08:32:09.194Z,36.47
2018-10-12T08:34:40.554Z,38.27
2018-10-12T08:37:11.957Z,37.87
2018-10-12T08:39:42.450Z,37.83
2018-10-12T08:42:13.465Z,61.43
2018-10-12T08:44:45.817Z,44.77
2018-10-12T08:47:17.104Z,35.10
2018-10-12T08:49:46.939Z,35.87
2018-10-12T08:52:18.294Z,34.50
2018-10-12T08:54:49.224Z,34.67
2018-10-12T08:57:19.472Z,35.33
2018-10-12T08:59:51.246Z,39.43
2018-10-12T09:02:22.144Z,33.93
2018-10-12T09:04:54.321Z,33.90
2018-10-12T09:07:23.990Z,33.87
2018-10-12T09:09:54.879Z,35.47
2018-10-12T09:12:25.104Z,34.37
2018-10-12T09:14:56.467Z,36.50
2018-10-12T09:17:26.622Z,34.17
2018-10-12T09:19:57.872Z,33.23
2018-10-12T09:22:29.173Z,35.93
2018-10-12T09:24:59.272Z,37.80
2018-10-12T09:27:28.982Z,34.00
2018-10-12T09:30:00.407Z,31.73
2018-10-12T09:32:30.300Z,30.23
2018-10-12T09:35:01.995Z,31.70
2018-10-12T09:37:32.393Z,32.80
2018-10-12T09:40:03.455Z,33.03
2018-10-12T09:42:34.198Z,32.93
2018-10-12T09:45:04.012Z,35.50
2018-10-12T09:47:35.271Z,37.30
2018-10-12T09:50:06.058Z,35.10
2018-10-12T09:52:36.223Z,35.90
2018-10-12T09:55:06.818Z,36.77
2018-10-12T09:57:37.627Z,38.43
2018-10-12T10:01:12.471Z,35.80
2018-10-12T10:03:47.527Z,34.70
2018-10-12T10:06:17.283Z,36.13
2018-10-12T10:08:48.699Z,56.73
2018-10-12T10:11:19.361Z,35.33
2018-10-12T10:13:50.014Z,35.83
2018-10-12T10:16:21.107Z,33.80
2018-10-12T10:18:52.351Z,35.07
2018-10-12T10:21:22.703Z,34.13
2018-10-12T10:23:53.136Z,33.07
2018-10-12T10:26:23.997Z,34.13
2018-10-12T10:28:55.715Z,33.80
2018-10-12T10:31:25.633Z,33.47
2018-10-12T10:33:55.923Z,31.33
2018-10-12T10:36:25.948Z,32.93
2018-10-12T10:38:56.433Z,34.50
2018-10-12T10:41:27.374Z,33.97
2018-10-12T10:43:58.002Z,35.20
2018-10-12T10:46:29.071Z,35.10
2018-10-12T10:48:59.177Z,33.33
2018-10-12T10:51:29.638Z,34.00
2018-10-12T10:53:59.473Z,34.37
2018-10-12T10:56:29.349Z,34.10
2018-10-12T10:58:59.219Z,33.93
2018-10-12T11:01:29.108Z,33.13
2018-10-12T11:03:58.987Z,28.50
2018-10-12T11:06:28.887Z,27.40
2018-10-12T11:08:58.737Z,26.43
2018-10-12T11:11:28.604Z,24.33
2018-10-12T11:13:58.564Z,27.47
2018-10-12T11:16:28.421Z,38.23
2018-10-12T11:18:58.267Z,28.53
2018-10-12T11:21:28.205Z,27.40
2018-10-12T11:23:58.087Z,26.17
2018-10-12T11:26:28.009Z,26.43
2018-10-12T11:28:57.858Z,27.00
2018-10-12T11:31:27.663Z,25.43
2018-10-12T11:33:57.576Z,26.63
2018-10-12T11:36:27.694Z,25.47
2018-10-12T11:38:57.594Z,24.90
2018-10-12T11:41:27.365Z,25.17
2018-10-12T11:43:57.188Z,25.00
2018-10-12T11:46:27.101Z,25.37
2018-10-12T11:48:56.961Z,26.97
2018-10-12T11:51:26.850Z,26.30
2018-10-12T11:53:56.768Z,26.37
2018-10-12T11:56:26.667Z,26.20
2018-10-12T11:58:56.611Z,26.70
2018-10-12T12:01:26.422Z,28.53
2018-10-12T12:03:56.315Z,30.33
2018-10-12T12:06:26.237Z,34.33
2018-10-12T12:08:55.991Z,31.43
2018-10-12T12:11:25.863Z,30.70
2018-10-12T12:13:55.850Z,31.70
2018-10-12T12:16:25.780Z,35.30
2018-10-12T12:18:55.670Z,32.63
2018-10-12T12:21:25.527Z,45.50
2018-10-12T12:23:55.439Z,36.23
2018-10-12T12:26:25.344Z,33.07
2018-10-12T12:28:55.946Z,31.40
2018-10-12T12:31:25.810Z,30.70
2018-10-12T12:33:55.718Z,32.63
2018-10-12T12:36:25.635Z,32.27
2018-10-12T12:38:55.526Z,30.00
2018-10-12T12:41:25.360Z,30.10
2018-10-12T12:43:55.348Z,31.50
2018-10-12T12:46:25.156Z,31.20
2018-10-12T12:48:55.518Z,31.03
2018-10-12T12:51:24.918Z,30.30
2018-10-12T12:53:54.735Z,28.77
2018-10-12T12:56:24.658Z,29.50
2018-10-12T12:58:54.504Z,29.23
2018-10-12T13:01:24.351Z,30.80
2018-10-12T13:03:54.291Z,30.07
2018-10-12T13:06:24.341Z,30.83
2018-10-12T13:08:54.160Z,29.77
2018-10-12T13:11:24.095Z,30.17
2018-10-12T13:13:54.092Z,34.53
2018-10-12T13:16:23.991Z,38.37
2018-10-12T13:18:53.884Z,40.57
2018-10-12T13:21:23.803Z,32.43
2018-10-12T13:23:53.694Z,32.37
2018-10-12T13:26:23.773Z,28.63
2018-10-12T13:28:53.563Z,29.50
2018-10-12T13:31:23.336Z,29.53
2018-10-12T13:33:53.259Z,30.00
2018-10-12T13:36:23.148Z,30.10
2018-10-12T13:38:52.986Z,30.53
2018-10-12T13:41:22.847Z,32.23
2018-10-12T13:43:52.758Z,30.23
2018-10-12T13:46:22.619Z,30.47
2018-10-12T13:48:52.443Z,33.03
2018-10-12T13:51:22.278Z,30.97
2018-10-12T13:53:52.214Z,30.00
2018-10-12T13:56:22.136Z,31.03
2018-10-12T13:58:52.112Z,31.20
2018-10-12T14:01:21.887Z,30.77
2018-10-12T14:03:51.818Z,30.33
2018-10-12T14:06:21.776Z,33.77
2018-10-12T14:08:51.651Z,33.00
2018-10-12T14:11:21.556Z,40.30
2018-10-12T14:13:51.411Z,33.20
2018-10-12T14:16:21.316Z,31.40
2018-10-12T14:18:51.370Z,30.63
2018-10-12T14:21:21.156Z,30.33
2018-10-12T14:23:50.988Z,30.97
2018-10-12T14:26:20.898Z,29.70
2018-10-12T14:28:50.853Z,32.30
2018-10-12T14:31:20.784Z,30.90
2018-10-12T14:33:50.714Z,32.40
2018-10-12T14:36:20.607Z,31.13
2018-10-12T14:38:50.493Z,29.47
2018-10-12T14:41:20.395Z,31.07
2018-10-12T14:43:50.411Z,29.97
2018-10-12T14:46:20.298Z,35.13
2018-10-12T14:48:50.290Z,36.73
2018-10-12T14:51:20.223Z,33.67
2018-10-12T14:53:50.350Z,33.00
2018-10-12T14:56:20.443Z,34.50
2018-10-12T14:58:50.485Z,33.77
2018-10-12T15:01:20.482Z,32.63
2018-10-12T15:03:50.366Z,31.77
2018-10-12T15:06:20.300Z,35.40
2018-10-12T15:08:50.389Z,34.10
2018-10-12T15:11:20.311Z,32.87
2018-10-12T15:13:50.283Z,34.00
2018-10-12T15:16:20.206Z,33.17
2018-10-12T15:18:50.093Z,32.97
2018-10-12T15:21:20.230Z,32.10
2018-10-12T15:23:49.980Z,33.13
2018-10-12T15:26:19.948Z,31.07
2018-10-12T15:28:49.843Z,33.07
2018-10-12T15:31:20.220Z,31.07
2018-10-12T15:33:50.589Z,31.80
2018-10-12T15:36:21.064Z,31.23
2018-10-12T15:38:51.324Z,31.63
2018-10-12T15:41:21.647Z,31.53
2018-10-12T15:43:51.963Z,30.33
2018-10-12T15:46:22.269Z,32.27
2018-10-12T15:48:52.787Z,30.53
2018-10-12T15:51:23.066Z,30.17
2018-10-12T15:53:53.366Z,30.73
2018-10-12T15:56:23.851Z,32.33
2018-10-12T15:58:54.314Z,32.63
2018-10-12T16:01:24.523Z,31.13
2018-10-12T16:03:55.357Z,30.77
2018-10-12T16:06:26.040Z,31.87
2018-10-12T16:08:56.409Z,32.97
2018-10-12T16:11:27.448Z,32.87
2018-10-12T16:13:58.049Z,32.60
2018-10-12T16:16:28.406Z,56.73
2018-10-12T16:18:58.651Z,43.43
2018-10-12T16:21:29.307Z,35.37
2018-10-12T16:24:07.011Z,34.87
2018-10-12T16:26:37.572Z,31.57
2018-10-12T16:29:08.656Z,27.30
2018-10-12T16:31:39.744Z,33.53
2018-10-12T16:34:10.341Z,33.53
2018-10-12T16:36:41.157Z,33.30
2018-10-12T16:39:12.714Z,33.77
2018-10-12T16:41:43.588Z,36.23
2018-10-12T16:44:14.238Z,35.43
2018-10-12T16:46:44.349Z,34.73
2018-10-12T16:49:16.005Z,33.50
2018-10-12T16:51:46.651Z,35.10
2018-10-12T16:54:18.824Z,37.57
2018-10-12T16:56:49.095Z,36.87
2018-10-12T16:59:19.903Z,40.43
2018-10-12T17:01:50.167Z,40.03
2018-10-12T17:04:20.657Z,41.70
2018-10-12T17:06:50.989Z,40.10
2018-10-12T17:09:21.398Z,42.37
2018-10-12T17:11:51.848Z,41.37
2018-10-12T17:14:21.658Z,40.67
2018-10-12T17:16:52.465Z,38.40
2018-10-12T17:19:23.340Z,38.77
2018-10-12T17:21:53.450Z,40.57
2018-10-12T17:24:23.839Z,41.03
2018-10-12T17:26:53.927Z,41.10
2018-10-12T17:29:24.707Z,43.20
2018-10-12T17:31:54.467Z,40.60
2018-10-12T17:34:25.378Z,47.20
2018-10-12T17:36:56.498Z,42.13
2018-10-12T17:39:28.288Z,41.97
2018-10-12T17:42:11.912Z,42.73
2018-10-12T17:44:41.987Z,43.70
2018-10-12T17:47:12.580Z,44.10
2018-10-12T17:49:42.887Z,43.90
2018-10-12T17:52:13.304Z,94.10
2018-10-12T17:54:43.346Z,45.37
2018-10-12T17:57:13.665Z,43.10
2018-10-12T17:59:44.245Z,44.87
2018-10-12T18:02:16.198Z,42.97
2018-10-12T18:04:47.809Z,43.90
2018-10-12T18:07:19.144Z,46.40
2018-10-12T18:09:49.669Z,49.97
2018-10-12T18:12:20.218Z,50.07
2018-10-12T18:14:51.142Z,48.27
2018-10-12T18:17:21.523Z,49.30
2018-10-12T18:19:52.293Z,46.47
2018-10-12T18:22:22.327Z,46.13
2018-10-12T18:24:52.239Z,44.57
2018-10-12T18:27:22.823Z,45.63
2018-10-12T18:29:53.643Z,44.87
2018-10-12T18:32:24.771Z,46.13
2018-10-12T18:34:54.947Z,46.00
2018-10-12T18:37:25.935Z,47.57
2018-10-12T18:39:56.698Z,51.50
2018-10-12T18:42:26.491Z,52.20
2018-10-12T18:44:56.893Z,55.13
2018-10-12T18:47:28.622Z,50.00
2018-10-12T18:49:58.703Z,49.27
2018-10-12T18:52:31.111Z,46.63
2018-10-12T18:55:01.762Z,45.93
2018-10-12T18:57:35.820Z,48.93
2018-10-12T19:00:07.592Z,46.80
2018-10-12T19:02:37.351Z,47.33
2018-10-12T19:05:08.165Z,47.83
2018-10-12T19:07:38.191Z,50.47
2018-10-12T19:10:09.180Z,53.73
2018-10-12T19:12:39.562Z,49.00
2018-10-12T19:15:09.980Z,49.87
2018-10-12T19:17:40.438Z,157.83
2018-10-12T19:20:11.435Z,57.90
2018-10-12T19:22:41.169Z,51.17
2018-10-12T19:25:11.852Z,58.10
2018-10-12T19:27:42.815Z,61.63
2018-10-12T19:30:13.060Z,54.30
2018-10-12T19:32:42.817Z,50.93
2018-10-12T19:35:13.775Z,50.90
2018-10-12T19:37:43.743Z,51.80
2018-10-12T19:40:14.309Z,49.63
2018-10-12T19:42:44.075Z,51.80
2018-10-12T19:45:14.994Z,49.67
2018-10-12T19:47:49.172Z,50.47
2018-10-12T19:50:23.575Z,48.47
2018-10-12T19:52:57.824Z,47.73
2018-10-12T19:55:28.345Z,47.73
2018-10-12T19:57:58.763Z,46.77
2018-10-12T20:00:28.452Z,47.23
2018-10-12T20:02:58.512Z,48.17
2018-10-12T20:05:29.778Z,48.17
2018-10-12T20:08:00.260Z,48.57
2018-10-12T20:10:32.090Z,50.63
2018-10-12T20:13:02.138Z,49.90
2018-10-12T20:15:33.656Z,50.00
2018-10-12T20:18:04.407Z,49.33
2018-10-12T20:20:35.473Z,50.30
2018-10-12T20:23:05.989Z,48.10
2018-10-12T20:25:36.704Z,49.97
2018-10-12T20:28:06.441Z,51.93
2018-10-12T20:30:36.163Z,50.93
2018-10-12T20:33:06.444Z,50.97
2018-10-12T20:35:37.195Z,47.17
2018-10-12T20:38:07.350Z,50.57
2018-10-12T20:40:38.405Z,55.27
2018-10-12T20:43:08.266Z,50.07
2018-10-12T20:45:37.883Z,50.43
2018-10-12T20:48:08.563Z,50.57
2018-10-12T20:50:39.095Z,50.37
2018-10-12T20:53:10.254Z,49.23
2018-10-12T20:55:40.869Z,48.40
2018-10-12T20:58:16.325Z,49.83
2018-10-12T21:00:46.695Z,48.63
2018-10-12T21:03:25.510Z,47.93
2018-10-12T21:05:56.557Z,49.13
2018-10-12T21:08:27.118Z,48.60
2018-10-12T21:10:57.890Z,47.50
2018-10-12T21:13:28.786Z,46.50
2018-10-12T21:15:59.914Z,47.40
2018-10-12T21:18:30.576Z,45.87
2018-10-12T21:21:00.724Z,45.13
2018-10-12T21:23:33.350Z,48.67
2018-10-12T21:26:03.757Z,46.50
2018-10-12T21:28:35.991Z,47.47
2018-10-12T21:31:06.194Z,45.47
2018-10-12T21:33:36.564Z,45.13
2018-10-12T21:36:06.450Z,48.33
2018-10-12T21:38:36.517Z,50.13
2018-10-12T21:41:07.321Z,51.43
2018-10-12T21:43:37.585Z,47.37
2018-10-12T21:46:07.967Z,48.93
2018-10-12T21:48:39.705Z,46.27
2018-10-12T21:51:11.407Z,46.93
2018-10-12T21:53:42.491Z,45.17
2018-10-12T21:56:12.989Z,44.00
2018-10-12T21:58:44.376Z,45.43
2018-10-12T22:01:15.493Z,45.47
2018-10-12T22:03:45.844Z,47.13
2018-10-12T22:06:15.973Z,46.53
2018-10-12T22:08:54.228Z,47.30
2018-10-12T22:11:24.062Z,49.10
2018-10-12T22:13:53.895Z,47.00
2018-10-12T22:16:24.214Z,47.17
2018-10-12T22:18:54.127Z,48.83
2018-10-12T22:21:23.995Z,45.67
2018-10-12T22:23:53.905Z,44.10
2018-10-12T22:26:23.844Z,42.60
2018-10-12T22:28:53.743Z,43.37
2018-10-12T22:31:23.605Z,43.00
2018-10-12T22:33:53.561Z,44.57
2018-10-12T22:36:23.543Z,46.93
2018-10-12T22:38:53.548Z,47.13
2018-10-12T22:41:23.303Z,48.50
2018-10-12T22:43:53.267Z,49.47
2018-10-12T22:46:23.228Z,49.63
2018-10-12T22:48:53.108Z,49.47
2018-10-12T22:51:23.021Z,47.03
2018-10-12T22:53:52.938Z,44.60
2018-10-12T22:56:22.840Z,44.30
2018-10-12T22:58:52.745Z,44.90
2018-10-12T23:01:22.711Z,46.30
2018-10-12T23:03:52.770Z,47.30
2018-10-12T23:06:22.885Z,48.30
2018-10-12T23:08:52.809Z,47.53
2018-10-12T23:11:22.708Z,46.27
2018-10-12T23:13:52.507Z,46.10
2018-10-12T23:16:22.425Z,51.03
2018-10-12T23:18:52.268Z,46.67
2018-10-12T23:21:22.086Z,45.33
2018-10-12T23:23:51.966Z,46.10
2018-10-12T23:26:21.928Z,56.33
2018-10-12T23:28:51.908Z,61.57
2018-10-12T23:31:21.807Z,49.70
2018-10-12T23:34:08.548Z,48.73
2018-10-12T23:36:38.309Z,46.03
2018-10-12T23:39:09.471Z,44.67
2018-10-12T23:41:39.211Z,47.77
2018-10-12T23:44:09.078Z,43.80
2018-10-12T23:46:39.027Z,43.43
2018-10-12T23:49:08.909Z,43.80
2018-10-12T23:51:38.903Z,41.70
2018-10-12T23:54:08.818Z,42.87
2018-10-12T23:56:38.622Z,40.83
2018-10-12T23:59:08.372Z,44.23
